This is the latest recevied weather packets stored in our database for station/object S51FO-6. If no packets are shown the sender has not sent any weather packets the latest 10 day(s).
| Time | Temp. | Humidity | Pressure | Rain* | Wind** | Luminosity | Snow |
|---|---|---|---|---|---|---|---|
| 1787898578 | 20.56° C | 66% | - | 0 mm | - | - | - |
| 1787897981 | 21.11° C | 63% | - | 0 mm | - | - | - |
| 1787896781 | 18.89° C | 77% | - | 0 mm | - | - | - |
| 1787896181 | 18.89° C | 78% | - | 0 mm | - | - | - |
| 1787895579 | 19.44° C | 73% | - | 0 mm | - | - | - |
| 1787894983 | 18.33° C | 78% | - | 0 mm | - | - | - |
| 1787894389 | 16.67° C | 82% | - | 0 mm | - | - | - |
| 1787893784 | 15.56° C | 85% | - | 0 mm | - | - | - |
| 1787893184 | 15.56° C | 86% | - | 0 mm | - | - | - |
| 1787891979 | 12.78° C | 85% | - | 0 mm | - | - | - |
| 1787891379 | 12.78° C | 85% | - | 0 mm | - | - | - |
| 1787889585 | 12.78° C | 84% | - | 0 mm | - | - | - |
| 1787889016 | 12.22° C | 84% | - | 0 mm | - | - | - |
| 1787888978 | 12.22° C | 84% | - | 0 mm | - | - | - |
| 1787888378 | 12.78° C | 84% | - | 0 mm | - | - | - |
| 1787887778 | 12.22° C | 83% | - | 0 mm | - | - | - |
| 1787886578 | 12.22° C | 82% | - | 0 mm | - | - | - |
| 1787885978 | 12.22° C | 80% | - | 0 mm | - | - | - |
| 1787884786 | 13.89° C | 79% | - | 0 mm | - | - | - |
| 1787884185 | 14.44° C | 79% | - | 0 mm | - | - | - |
| 1787883581 | 15° C | 76% | - | 0 mm | - | - | - |
| 1787882986 | 16.11° C | 72% | - | 0 mm | - | - | - |
| 1787882419 | 16.67° C | 69% | - | 0 mm | - | - | - |
| 1787882378 | 16.67° C | 69% | - | 0 mm | - | - | - |
| 1787881189 | 16.11° C | 73% | - | 0 mm | - | - | - |
* Rain latest hour (hover to see other rain measurements)
** Current wind speed in m/s (hover to see current wind gust speed)